Time;durP1;ratioP1;P1;durP2;ratioP2;P2;SDS_P1;SDS_P2;PMS_P1;PMS_P2;Temp;Humidity;BMP_temperature;BMP_pressure;BME280_temperature;BME280_humidity;BME280_pressure;Samples;Min_cycle;Max_cycle;Signal;HPM_P1;HPM_P2
2021/04/24 00:00:22;;;;;;;6.82;3.90;;;;;;;;;;5012231;28;20041;-57
2021/04/24 00:02:49;;;;;;;6.07;3.83;;;;;;;;;;5014048;28;20052;-58
2021/04/24 00:05:28;;;;;;;5.63;3.78;;;;;;;;;;5012189;28;21133;-60
2021/04/24 00:07:56;;;;;;;11.10;4.32;;;;;;;;;;5031306;28;20079;-57
2021/04/24 00:10:23;;;;;;;7.63;4.15;;;;;;;;;;5031566;28;20072;-59
2021/04/24 00:12:49;;;;;;;6.07;3.80;;;;;;;;;;5003549;28;20092;-57
2021/04/24 00:15:15;;;;;;;10.70;4.13;;;;;;;;;;5012220;28;20325;-58
2021/04/24 00:17:41;;;;;;;6.10;3.60;;;;;;;;;;5012387;28;20458;-57
2021/04/24 00:20:08;;;;;;;5.60;4.15;;;;;;;;;;5030223;28;20037;-55
2021/04/24 00:22:34;;;;;;;6.00;3.92;;;;;;;;;;4998615;28;20048;-56
2021/04/24 00:25:00;;;;;;;6.85;3.88;;;;;;;;;;5015567;28;20045;-56
2021/04/24 00:27:26;;;;;;;6.22;4.57;;;;;;;;;;5014200;28;20038;-56
2021/04/24 00:29:52;;;;;;;7.00;3.95;;;;;;;;;;5014032;28;20041;-58
2021/04/24 00:32:18;;;;;;;5.85;4.03;;;;;;;;;;5013682;28;20497;-57
2021/04/24 00:34:44;;;;;;;6.40;4.03;;;;;;;;;;5015939;28;20034;-58
2021/04/24 00:37:10;;;;;;;6.60;4.15;;;;;;;;;;4998429;28;20044;-58
2021/04/24 00:39:36;;;;;;;6.85;4.50;;;;;;;;;;5017777;28;20484;-56
2021/04/24 00:42:02;;;;;;;7.97;4.07;;;;;;;;;;5015061;28;20072;-57
2021/04/24 00:44:27;;;;;;;6.95;4.25;;;;;;;;;;5015714;28;20050;-55
2021/04/24 00:46:53;;;;;;;7.25;4.05;;;;;;;;;;5017165;28;20034;-55
2021/04/24 00:49:19;;;;;;;9.30;3.85;;;;;;;;;;5016589;28;20566;-58
2021/04/24 00:51:45;;;;;;;7.40;4.20;;;;;;;;;;5015955;28;20057;-59
2021/04/24 00:54:11;;;;;;;7.68;4.65;;;;;;;;;;5015564;28;20408;-54
2021/04/24 00:56:38;;;;;;;7.32;3.85;;;;;;;;;;5011089;28;20065;-58
2021/04/24 00:59:04;;;;;;;7.80;4.30;;;;;;;;;;5013401;28;20071;-58
2021/04/24 01:01:29;;;;;;;6.70;4.55;;;;;;;;;;5010457;28;20038;-57
2021/04/24 01:03:56;;;;;;;6.43;4.30;;;;;;;;;;4997425;28;20064;-58
2021/04/24 01:06:21;;;;;;;5.55;3.90;;;;;;;;;;5009872;28;20065;-53
2021/04/24 01:08:47;;;;;;;8.10;4.20;;;;;;;;;;5013633;28;20153;-53
2021/04/24 01:11:13;;;;;;;7.60;4.07;;;;;;;;;;5012075;28;20052;-56
2021/04/24 01:13:39;;;;;;;8.52;4.60;;;;;;;;;;5012040;28;20045;-54
2021/04/24 01:16:05;;;;;;;10.30;5.00;;;;;;;;;;5010806;28;20049;-56
2021/04/24 01:18:31;;;;;;;7.00;4.70;;;;;;;;;;4999429;28;20036;-58
2021/04/24 01:20:58;;;;;;;7.18;4.45;;;;;;;;;;5012858;28;20037;-55
2021/04/24 01:23:24;;;;;;;7.20;4.45;;;;;;;;;;5006933;28;20136;-53
2021/04/24 01:25:50;;;;;;;10.02;4.72;;;;;;;;;;4996550;28;20026;-58
2021/04/24 01:28:16;;;;;;;8.05;3.97;;;;;;;;;;5010734;28;20040;-55
2021/04/24 01:30:43;;;;;;;6.20;3.88;;;;;;;;;;5012179;28;20067;-55
2021/04/24 01:33:10;;;;;;;6.85;4.35;;;;;;;;;;5014546;28;20136;-54
2021/04/24 01:35:37;;;;;;;8.80;4.72;;;;;;;;;;5011327;28;20037;-57
2021/04/24 01:38:03;;;;;;;7.47;4.40;;;;;;;;;;5012034;28;20578;-56
2021/04/24 01:40:29;;;;;;;8.18;4.97;;;;;;;;;;4995026;28;20045;-58
2021/04/24 01:42:55;;;;;;;8.60;4.78;;;;;;;;;;5012049;28;20115;-55
2021/04/24 01:45:22;;;;;;;8.48;4.78;;;;;;;;;;5010157;28;20037;-57
2021/04/24 01:47:48;;;;;;;10.10;5.00;;;;;;;;;;5012531;28;20049;-58
2021/04/24 01:50:15;;;;;;;12.13;4.82;;;;;;;;;;5012953;28;20048;-57
2021/04/24 01:52:42;;;;;;;10.63;5.90;;;;;;;;;;4994481;28;20041;-55
2021/04/24 01:55:11;;;;;;;7.45;5.00;;;;;;;;;;5013600;28;20113;-59
2021/04/24 01:57:39;;;;;;;8.32;4.78;;;;;;;;;;5009949;28;20034;-56
2021/04/24 02:00:06;;;;;;;11.48;5.68;;;;;;;;;;5011150;28;20498;-59
2021/04/24 02:02:32;;;;;;;9.55;4.65;;;;;;;;;;5010767;28;20058;-57
2021/04/24 02:05:00;;;;;;;6.85;4.30;;;;;;;;;;5011292;28;20038;-58
2021/04/24 02:07:26;;;;;;;7.90;5.32;;;;;;;;;;5011211;28;20063;-57
2021/04/24 02:09:52;;;;;;;7.82;4.70;;;;;;;;;;5011053;28;20067;-58
2021/04/24 02:12:17;;;;;;;8.77;5.18;;;;;;;;;;5010067;28;20045;-53
2021/04/24 02:14:44;;;;;;;8.82;5.10;;;;;;;;;;5011127;28;20133;-56
2021/04/24 02:17:12;;;;;;;9.10;4.57;;;;;;;;;;5011327;28;20087;-56
2021/04/24 02:19:42;;;;;;;8.45;4.70;;;;;;;;;;5011542;28;20154;-58
2021/04/24 02:22:08;;;;;;;8.57;5.63;;;;;;;;;;5011920;28;22051;-56
2021/04/24 02:24:38;;;;;;;8.63;5.22;;;;;;;;;;5024579;28;20041;-57
2021/04/24 02:27:05;;;;;;;7.43;5.00;;;;;;;;;;5009913;28;20041;-56
2021/04/24 02:29:31;;;;;;;7.85;4.82;;;;;;;;;;5011112;28;20138;-54
2021/04/24 02:31:56;;;;;;;9.95;4.95;;;;;;;;;;5011159;28;20217;-56
2021/04/24 02:34:22;;;;;;;6.93;4.90;;;;;;;;;;5008416;28;20052;-56
2021/04/24 02:36:48;;;;;;;9.65;4.90;;;;;;;;;;5015557;28;20037;-55
2021/04/24 02:39:14;;;;;;;6.80;4.80;;;;;;;;;;5029035;28;20049;-56
2021/04/24 02:41:40;;;;;;;8.45;4.90;;;;;;;;;;5025878;28;20044;-57
2021/04/24 02:44:06;;;;;;;7.40;4.65;;;;;;;;;;5010861;28;20045;-57
2021/04/24 02:46:32;;;;;;;6.63;4.60;;;;;;;;;;5012282;28;20037;-55
2021/04/24 02:48:58;;;;;;;8.82;5.05;;;;;;;;;;5009911;28;20045;-55
2021/04/24 02:51:23;;;;;;;9.48;4.65;;;;;;;;;;5010351;28;20586;-56
2021/04/24 02:53:49;;;;;;;8.70;5.18;;;;;;;;;;5014369;28;20448;-56
2021/04/24 02:56:15;;;;;;;12.63;4.97;;;;;;;;;;5030109;28;20419;-57
2021/04/24 02:58:43;;;;;;;9.25;5.20;;;;;;;;;;5010884;28;20064;-54
2021/04/24 03:01:09;;;;;;;9.00;4.82;;;;;;;;;;5009962;28;20072;-55
2021/04/24 03:03:35;;;;;;;9.02;5.38;;;;;;;;;;5009865;28;20136;-56
2021/04/24 03:06:01;;;;;;;8.02;5.43;;;;;;;;;;5011273;28;20041;-54
2021/04/24 03:08:27;;;;;;;9.48;5.22;;;;;;;;;;5026593;28;20037;-54
2021/04/24 03:10:53;;;;;;;7.68;4.97;;;;;;;;;;5011922;28;20139;-57
2021/04/24 03:13:19;;;;;;;7.47;5.03;;;;;;;;;;5009123;28;20064;-56
2021/04/24 03:15:44;;;;;;;11.25;5.75;;;;;;;;;;5009468;28;20045;-57
2021/04/24 03:18:10;;;;;;;9.95;5.70;;;;;;;;;;5011991;28;20065;-56
2021/04/24 03:20:36;;;;;;;8.25;5.20;;;;;;;;;;5010415;28;20037;-56
2021/04/24 03:23:04;;;;;;;8.07;5.55;;;;;;;;;;5009579;28;20091;-54
2021/04/24 03:25:30;;;;;;;7.20;5.10;;;;;;;;;;5009165;28;20052;-55
2021/04/24 03:27:55;;;;;;;10.93;5.78;;;;;;;;;;5010398;28;20063;-55
2021/04/24 03:30:21;;;;;;;7.15;5.00;;;;;;;;;;5009846;28;20541;-56
2021/04/24 03:32:50;;;;;;;8.90;5.35;;;;;;;;;;5010752;28;20045;-54
2021/04/24 03:35:16;;;;;;;7.38;4.80;;;;;;;;;;5011533;28;20662;-56
2021/04/24 03:37:42;;;;;;;9.85;5.22;;;;;;;;;;5008887;28;20395;-56
2021/04/24 03:40:08;;;;;;;9.20;5.15;;;;;;;;;;5010824;28;20046;-56
2021/04/24 03:42:35;;;;;;;7.90;5.72;;;;;;;;;;5007716;28;20064;-57
2021/04/24 03:45:01;;;;;;;8.07;5.45;;;;;;;;;;5011475;28;20034;-57
2021/04/24 03:47:27;;;;;;;8.40;5.50;;;;;;;;;;5010042;28;20037;-57
2021/04/24 03:49:53;;;;;;;10.75;5.50;;;;;;;;;;5011091;28;20094;-55
2021/04/24 03:52:19;;;;;;;9.25;5.78;;;;;;;;;;5010816;28;20553;-55
2021/04/24 03:54:45;;;;;;;7.20;4.97;;;;;;;;;;5011283;28;20088;-54
2021/04/24 03:57:11;;;;;;;10.93;5.28;;;;;;;;;;5013553;28;20037;-57
2021/04/24 03:59:37;;;;;;;8.25;5.57;;;;;;;;;;5015664;28;20076;-54
2021/04/24 04:02:03;;;;;;;9.25;5.80;;;;;;;;;;5015911;28;20034;-56
2021/04/24 04:04:29;;;;;;;7.60;5.50;;;;;;;;;;5015849;28;21038;-56
2021/04/24 04:06:55;;;;;;;9.13;5.38;;;;;;;;;;5013815;28;20040;-55
2021/04/24 04:09:20;;;;;;;12.38;5.65;;;;;;;;;;5013858;28;20380;-58
2021/04/24 04:11:46;;;;;;;10.73;6.65;;;;;;;;;;5015100;28;22084;-56
2021/04/24 04:14:12;;;;;;;13.57;6.53;;;;;;;;;;4995868;28;20026;-57
2021/04/24 04:16:38;;;;;;;11.23;6.15;;;;;;;;;;5013442;28;20788;-57
2021/04/24 04:19:04;;;;;;;11.02;6.20;;;;;;;;;;5014144;28;20475;-57
2021/04/24 04:21:30;;;;;;;10.82;6.03;;;;;;;;;;5013702;28;20103;-58
2021/04/24 04:23:56;;;;;;;8.25;5.90;;;;;;;;;;5014169;28;20553;-57
2021/04/24 04:26:22;;;;;;;14.00;6.43;;;;;;;;;;5013083;28;20146;-58
2021/04/24 04:28:48;;;;;;;9.27;6.03;;;;;;;;;;5016854;28;20037;-58
2021/04/24 04:31:14;;;;;;;8.45;5.95;;;;;;;;;;5017484;28;20116;-57
2021/04/24 04:33:40;;;;;;;10.73;5.55;;;;;;;;;;5016329;28;20045;-57
2021/04/24 04:36:06;;;;;;;8.30;5.80;;;;;;;;;;5016030;28;20045;-57
2021/04/24 04:38:32;;;;;;;12.15;5.95;;;;;;;;;;5015482;28;20080;-58
2021/04/24 04:40:59;;;;;;;11.00;6.18;;;;;;;;;;5017248;28;20057;-58
2021/04/24 04:43:24;;;;;;;13.02;7.47;;;;;;;;;;4992110;28;20076;-57
2021/04/24 04:45:50;;;;;;;8.98;5.85;;;;;;;;;;5016109;28;20547;-57
2021/04/24 04:48:17;;;;;;;8.40;5.35;;;;;;;;;;5000935;28;20069;-56
2021/04/24 04:50:43;;;;;;;8.52;5.88;;;;;;;;;;5022714;28;20041;-57
2021/04/24 04:53:08;;;;;;;7.82;5.15;;;;;;;;;;5005299;28;20030;-57
2021/04/24 04:55:35;;;;;;;8.15;5.60;;;;;;;;;;5022644;28;20049;-55
2021/04/24 04:58:01;;;;;;;9.25;5.88;;;;;;;;;;5024062;28;20068;-57
2021/04/24 05:00:27;;;;;;;10.13;5.57;;;;;;;;;;5031528;28;20566;-56
2021/04/24 05:02:53;;;;;;;8.05;5.22;;;;;;;;;;5027009;28;20059;-58
2021/04/24 05:05:19;;;;;;;9.90;5.32;;;;;;;;;;5021711;28;20449;-57
2021/04/24 05:07:46;;;;;;;11.32;5.53;;;;;;;;;;5020783;28;20440;-57
2021/04/24 05:10:12;;;;;;;11.77;5.90;;;;;;;;;;5022241;28;20044;-60
2021/04/24 05:12:38;;;;;;;9.05;5.57;;;;;;;;;;5027363;28;20029;-57
2021/04/24 05:15:04;;;;;;;9.98;5.60;;;;;;;;;;5016546;28;20095;-57
2021/04/24 05:17:30;;;;;;;9.00;5.32;;;;;;;;;;5032538;28;20602;-56
2021/04/24 05:19:56;;;;;;;10.63;5.78;;;;;;;;;;5025180;28;20056;-57
2021/04/24 05:22:22;;;;;;;8.10;5.57;;;;;;;;;;5012107;28;20057;-57
2021/04/24 05:24:48;;;;;;;8.80;5.80;;;;;;;;;;4995505;28;20052;-57
2021/04/24 05:27:14;;;;;;;12.25;7.03;;;;;;;;;;5027995;28;20059;-57
2021/04/24 05:29:40;;;;;;;12.27;7.38;;;;;;;;;;5014027;28;20876;-56
2021/04/24 05:32:06;;;;;;;9.98;6.25;;;;;;;;;;5014005;28;20160;-54
2021/04/24 05:34:32;;;;;;;10.02;6.32;;;;;;;;;;5025119;28;20041;-56
2021/04/24 05:36:58;;;;;;;12.02;6.63;;;;;;;;;;5012115;28;20044;-54
2021/04/24 05:39:24;;;;;;;12.15;7.43;;;;;;;;;;5011693;28;20049;-58
2021/04/24 05:41:50;;;;;;;14.75;8.50;;;;;;;;;;5010540;28;20073;-58
2021/04/24 05:44:16;;;;;;;11.45;7.13;;;;;;;;;;5012591;28;20046;-58
2021/04/24 05:46:42;;;;;;;11.43;6.20;;;;;;;;;;5012808;28;20577;-57
2021/04/24 05:49:08;;;;;;;13.30;8.88;;;;;;;;;;5014384;28;20603;-54
2021/04/24 05:51:35;;;;;;;13.90;9.20;;;;;;;;;;4995210;28;20139;-54
2021/04/24 05:54:00;;;;;;;13.63;8.80;;;;;;;;;;5011813;28;20030;-55
2021/04/24 05:56:26;;;;;;;13.52;8.85;;;;;;;;;;5013057;28;20432;-59
2021/04/24 05:58:52;;;;;;;12.00;7.18;;;;;;;;;;5015546;28;20048;-56
2021/04/24 06:01:19;;;;;;;11.80;7.10;;;;;;;;;;5013454;28;20835;-57
2021/04/24 06:03:45;;;;;;;9.77;6.97;;;;;;;;;;5012989;28;20579;-58
2021/04/24 06:06:11;;;;;;;11.00;6.75;;;;;;;;;;5016403;28;20057;-55
2021/04/24 06:08:37;;;;;;;12.80;7.00;;;;;;;;;;4994398;28;20046;-57
2021/04/24 06:11:03;;;;;;;13.15;7.47;;;;;;;;;;4989214;28;20037;-59
2021/04/24 06:13:29;;;;;;;10.88;7.03;;;;;;;;;;5013223;28;22625;-58
2021/04/24 06:15:55;;;;;;;11.95;6.55;;;;;;;;;;5028456;28;20064;-57
2021/04/24 06:18:22;;;;;;;11.40;7.10;;;;;;;;;;5024707;28;20051;-57
2021/04/24 06:20:48;;;;;;;11.45;6.88;;;;;;;;;;5039465;28;20124;-58
2021/04/24 06:23:14;;;;;;;11.23;6.90;;;;;;;;;;5037597;28;20053;-55
2021/04/24 06:25:41;;;;;;;13.23;7.05;;;;;;;;;;5031082;28;20045;-55
2021/04/24 06:28:08;;;;;;;9.43;6.57;;;;;;;;;;5034671;28;20029;-57
2021/04/24 06:30:34;;;;;;;11.70;6.47;;;;;;;;;;5032475;28;20442;-55
2021/04/24 06:33:00;;;;;;;11.55;7.47;;;;;;;;;;5035036;28;20041;-55
2021/04/24 06:35:26;;;;;;;12.77;7.07;;;;;;;;;;5021782;28;20033;-55
2021/04/24 06:37:52;;;;;;;13.82;6.95;;;;;;;;;;4999612;28;20588;-55
2021/04/24 06:40:19;;;;;;;10.57;7.15;;;;;;;;;;5003237;28;20038;-55
2021/04/24 06:42:45;;;;;;;14.73;7.75;;;;;;;;;;5013169;28;20050;-58
2021/04/24 06:45:11;;;;;;;11.02;7.22;;;;;;;;;;5015065;28;20041;-57
2021/04/24 06:47:37;;;;;;;17.27;7.80;;;;;;;;;;5040540;28;20079;-57
2021/04/24 06:50:04;;;;;;;14.18;7.43;;;;;;;;;;5026739;28;20534;-58
2021/04/24 06:52:30;;;;;;;12.40;7.65;;;;;;;;;;5023501;28;20026;-56
2021/04/24 06:54:56;;;;;;;13.25;7.72;;;;;;;;;;5016950;28;20641;-56
2021/04/24 06:57:22;;;;;;;14.40;8.27;;;;;;;;;;5024603;28;20049;-55
2021/04/24 06:59:49;;;;;;;12.38;7.50;;;;;;;;;;5016878;28;20541;-57
2021/04/24 07:02:16;;;;;;;14.15;7.70;;;;;;;;;;5021864;28;20037;-55
2021/04/24 07:04:42;;;;;;;11.98;7.78;;;;;;;;;;5025239;28;20037;-58
2021/04/24 07:07:11;;;;;;;13.38;8.18;;;;;;;;;;5019206;28;20068;-57
2021/04/24 07:09:38;;;;;;;12.15;7.75;;;;;;;;;;5024526;28;21476;-57
2021/04/24 07:12:05;;;;;;;15.05;8.27;;;;;;;;;;5026164;28;20176;-56
2021/04/24 07:14:31;;;;;;;13.30;8.32;;;;;;;;;;5016321;28;20540;-58
2021/04/24 07:16:57;;;;;;;12.93;7.95;;;;;;;;;;5027932;28;20038;-56
2021/04/24 07:19:24;;;;;;;15.50;8.82;;;;;;;;;;5020697;28;20040;-57
2021/04/24 07:21:50;;;;;;;12.05;7.78;;;;;;;;;;5024539;28;20064;-57
2021/04/24 07:24:16;;;;;;;12.13;7.80;;;;;;;;;;5013816;28;20524;-56
2021/04/24 07:26:42;;;;;;;11.75;8.30;;;;;;;;;;5004343;28;20076;-57
2021/04/24 07:29:08;;;;;;;12.85;8.38;;;;;;;;;;4998423;28;20029;-54
2021/04/24 07:31:34;;;;;;;15.02;8.23;;;;;;;;;;5032279;28;20044;-55
2021/04/24 07:34:00;;;;;;;15.88;8.80;;;;;;;;;;5030318;28;20046;-55
2021/04/24 07:36:27;;;;;;;14.35;8.77;;;;;;;;;;5008023;28;20049;-57
2021/04/24 07:38:53;;;;;;;15.35;9.63;;;;;;;;;;5024300;28;20553;-55
2021/04/24 07:41:19;;;;;;;14.10;9.25;;;;;;;;;;5023945;28;20120;-58
2021/04/24 07:43:45;;;;;;;16.85;9.73;;;;;;;;;;5028316;28;20665;-57
2021/04/24 07:46:11;;;;;;;14.45;10.02;;;;;;;;;;5020255;28;20462;-60
2021/04/24 07:48:37;;;;;;;17.05;10.63;;;;;;;;;;5031695;28;20029;-57
2021/04/24 07:51:03;;;;;;;13.45;8.88;;;;;;;;;;5022076;28;20046;-54
2021/04/24 07:53:29;;;;;;;16.48;9.80;;;;;;;;;;5023786;28;20383;-54
2021/04/24 07:55:55;;;;;;;16.45;9.88;;;;;;;;;;5028705;28;20043;-57
2021/04/24 07:58:21;;;;;;;15.77;9.88;;;;;;;;;;5009496;28;20055;-57
2021/04/24 08:00:47;;;;;;;13.50;9.32;;;;;;;;;;5014641;28;20045;-56
2021/04/24 08:03:13;;;;;;;14.68;9.73;;;;;;;;;;5014515;28;20045;-59
2021/04/24 08:05:39;;;;;;;16.40;9.93;;;;;;;;;;5029503;28;20422;-57
2021/04/24 08:08:05;;;;;;;15.00;10.50;;;;;;;;;;5016111;28;20037;-56
2021/04/24 08:10:31;;;;;;;14.80;10.02;;;;;;;;;;5014323;28;20030;-58
2021/04/24 08:13:02;;;;;;;14.77;9.70;;;;;;;;;;5013151;28;20068;-55
2021/04/24 08:15:28;;;;;;;14.38;9.73;;;;;;;;;;5012374;28;21313;-54
2021/04/24 08:17:59;;;;;;;15.52;9.98;;;;;;;;;;5014042;28;20487;-57
2021/04/24 08:20:24;;;;;;;16.67;10.20;;;;;;;;;;5015242;28;20049;-57
2021/04/24 08:22:50;;;;;;;18.67;11.20;;;;;;;;;;4997116;28;20058;-57
2021/04/24 08:25:17;;;;;;;15.93;10.52;;;;;;;;;;5013864;28;20770;-58
2021/04/24 08:27:43;;;;;;;15.50;10.05;;;;;;;;;;5033631;28;20495;-58
2021/04/24 08:30:10;;;;;;;16.20;10.18;;;;;;;;;;5033261;28;20045;-55
2021/04/24 08:32:36;;;;;;;15.98;10.35;;;;;;;;;;5015402;28;20044;-58
2021/04/24 08:35:03;;;;;;;17.58;10.35;;;;;;;;;;5033894;28;20033;-56
2021/04/24 08:37:29;;;;;;;17.83;10.63;;;;;;;;;;5034214;28;20042;-57
2021/04/24 08:39:55;;;;;;;14.90;9.38;;;;;;;;;;5035755;28;20209;-54
2021/04/24 08:42:21;;;;;;;17.63;10.60;;;;;;;;;;5030671;28;20061;-57
2021/04/24 08:44:49;;;;;;;14.90;10.30;;;;;;;;;;5034065;28;20051;-56
2021/04/24 08:47:15;;;;;;;17.95;11.32;;;;;;;;;;5034746;28;20037;-56
2021/04/24 08:49:41;;;;;;;17.63;11.10;;;;;;;;;;5033186;28;20037;-56
2021/04/24 08:52:07;;;;;;;17.15;11.18;;;;;;;;;;5033908;28;20041;-57
2021/04/24 08:54:33;;;;;;;17.75;11.00;;;;;;;;;;5032878;28;20045;-57
2021/04/24 08:56:59;;;;;;;16.92;11.15;;;;;;;;;;5016258;28;20052;-53
2021/04/24 08:59:25;;;;;;;16.92;10.55;;;;;;;;;;5016121;28;20037;-57
2021/04/24 09:01:50;;;;;;;19.45;10.63;;;;;;;;;;5020810;28;20061;-58
2021/04/24 09:04:17;;;;;;;17.95;11.55;;;;;;;;;;4997746;28;20092;-57
2021/04/24 09:06:43;;;;;;;17.30;11.82;;;;;;;;;;5021806;28;20033;-57
2021/04/24 09:09:11;;;;;;;20.70;12.13;;;;;;;;;;5024388;28;20057;-57
2021/04/24 09:11:40;;;;;;;19.35;11.35;;;;;;;;;;5020419;28;20262;-56
2021/04/24 09:14:08;;;;;;;20.20;11.98;;;;;;;;;;5020572;28;20041;-57
2021/04/24 09:16:35;;;;;;;20.30;11.88;;;;;;;;;;5021120;28;20033;-54
2021/04/24 09:19:01;;;;;;;19.88;12.63;;;;;;;;;;5027475;28;20527;-55
2021/04/24 09:21:28;;;;;;;20.15;11.82;;;;;;;;;;5023750;28;20038;-54
2021/04/24 09:23:54;;;;;;;18.88;11.45;;;;;;;;;;4999902;28;20052;-57
2021/04/24 09:26:27;;;;;;;22.15;12.88;;;;;;;;;;5023057;28;20040;-57
2021/04/24 09:29:00;;;;;;;17.48;11.30;;;;;;;;;;5025647;28;20068;-56
2021/04/24 09:31:26;;;;;;;20.38;12.55;;;;;;;;;;5016339;28;20095;-57
2021/04/24 09:33:57;;;;;;;19.55;12.43;;;;;;;;;;5025464;28;21006;-54
2021/04/24 09:36:24;;;;;;;18.70;12.52;;;;;;;;;;4996415;28;20049;-58
2021/04/24 09:38:52;;;;;;;21.35;12.55;;;;;;;;;;5013596;28;20520;-54
2021/04/24 09:41:18;;;;;;;21.75;12.52;;;;;;;;;;5013173;28;20403;-54
2021/04/24 09:43:52;;;;;;;21.88;14.00;;;;;;;;;;5012087;28;20053;-56
2021/04/24 09:46:18;;;;;;;20.40;13.50;;;;;;;;;;5014357;28;20047;-56
2021/04/24 09:48:44;;;;;;;23.98;14.32;;;;;;;;;;5017741;28;20041;-56
2021/04/24 09:51:14;;;;;;;22.30;14.57;;;;;;;;;;5015029;28;20120;-54
2021/04/24 09:53:39;;;;;;;18.90;12.40;;;;;;;;;;5011546;28;20503;-57
2021/04/24 09:56:05;;;;;;;20.30;12.80;;;;;;;;;;5011756;28;20047;-57
2021/04/24 09:58:33;;;;;;;21.20;14.38;;;;;;;;;;5012823;28;20042;-54
2021/04/24 10:01:19;;;;;;;21.98;13.93;;;;;;;;;;5013585;28;20052;-56
2021/04/24 10:03:44;;;;;;;20.13;13.68;;;;;;;;;;5031525;28;20180;-54
2021/04/24 10:06:23;;;;;;;21.38;12.70;;;;;;;;;;5030745;28;20036;-57
2021/04/24 10:08:50;;;;;;;21.88;14.35;;;;;;;;;;5029784;28;20112;-55
2021/04/24 10:11:26;;;;;;;23.25;14.48;;;;;;;;;;5031281;28;20034;-56
2021/04/24 10:13:51;;;;;;;22.58;14.05;;;;;;;;;;5031827;28;20056;-55
2021/04/24 10:16:34;;;;;;;22.60;15.25;;;;;;;;;;5031330;28;20047;-54
2021/04/24 10:19:05;;;;;;;20.70;12.43;;;;;;;;;;5022909;28;20045;-57
2021/04/24 10:21:31;;;;;;;25.17;14.43;;;;;;;;;;5031949;28;20745;-58
2021/04/24 10:23:57;;;;;;;23.45;14.63;;;;;;;;;;5030178;28;20053;-56
2021/04/24 10:26:24;;;;;;;23.52;15.38;;;;;;;;;;5028081;28;20036;-57
2021/04/24 10:28:50;;;;;;;25.65;14.48;;;;;;;;;;5022492;28;20025;-56
2021/04/24 10:31:16;;;;;;;20.70;13.57;;;;;;;;;;5023348;28;20041;-57
2021/04/24 10:33:43;;;;;;;22.48;15.15;;;;;;;;;;5018197;28;20760;-56
2021/04/24 10:36:09;;;;;;;25.77;15.23;;;;;;;;;;5013148;28;20152;-56
2021/04/24 10:38:35;;;;;;;22.02;13.13;;;;;;;;;;5009750;28;20037;-57
2021/04/24 10:41:03;;;;;;;20.40;12.80;;;;;;;;;;5012622;28;20101;-57
2021/04/24 10:43:29;;;;;;;21.48;12.55;;;;;;;;;;4996000;28;20135;-57
2021/04/24 10:45:55;;;;;;;20.10;12.85;;;;;;;;;;5013315;28;20037;-57
2021/04/24 10:48:25;;;;;;;20.33;13.07;;;;;;;;;;5011200;28;20049;-57
2021/04/24 10:50:51;;;;;;;22.52;13.05;;;;;;;;;;5011778;28;20041;-57
2021/04/24 10:53:21;;;;;;;21.73;13.13;;;;;;;;;;5012006;28;20052;-58
2021/04/24 10:55:48;;;;;;;21.33;12.20;;;;;;;;;;5030375;28;20086;-55
2021/04/24 10:58:21;;;;;;;19.20;12.55;;;;;;;;;;5032487;28;20056;-58
2021/04/24 11:00:51;;;;;;;18.38;12.93;;;;;;;;;;5018249;28;20045;-57
2021/04/24 11:03:38;;;;;;;18.85;12.25;;;;;;;;;;5028394;28;20085;-56
2021/04/24 11:06:08;;;;;;;18.73;12.30;;;;;;;;;;5046049;28;20037;-55
2021/04/24 11:08:34;;;;;;;19.63;11.93;;;;;;;;;;5006142;28;20132;-56
2021/04/24 11:11:04;;;;;;;23.67;12.85;;;;;;;;;;5014715;28;20142;-58
2021/04/24 11:13:38;;;;;;;20.58;13.00;;;;;;;;;;5015325;28;20060;-58
2021/04/24 11:16:05;;;;;;;18.25;12.43;;;;;;;;;;5017393;28;20037;-56
2021/04/24 11:18:32;;;;;;;18.83;11.80;;;;;;;;;;5013606;28;20033;-55
2021/04/24 11:20:58;;;;;;;18.30;11.77;;;;;;;;;;5015759;28;20042;-55
2021/04/24 11:23:30;;;;;;;19.63;12.15;;;;;;;;;;5007640;28;20056;-55
2021/04/24 11:25:59;;;;;;;20.95;12.68;;;;;;;;;;5016498;28;20387;-54
2021/04/24 11:28:25;;;;;;;18.92;12.05;;;;;;;;;;5016359;28;20137;-56
2021/04/24 11:31:07;;;;;;;20.58;13.13;;;;;;;;;;5036154;28;20132;-57
2021/04/24 11:33:47;;;;;;;23.75;13.98;;;;;;;;;;5027864;28;20034;-57
2021/04/24 11:36:16;;;;;;;22.30;13.70;;;;;;;;;;5028568;28;20058;-54
2021/04/24 11:38:59;;;;;;;23.60;13.35;;;;;;;;;;5017556;28;20122;-57
2021/04/24 11:41:32;;;;;;;20.88;14.23;;;;;;;;;;5034867;28;20049;-56
2021/04/24 11:43:59;;;;;;;19.67;11.25;;;;;;;;;;5036134;28;20132;-56
2021/04/24 11:46:37;;;;;;;22.30;13.95;;;;;;;;;;5035101;28;20037;-57
2021/04/24 11:49:09;;;;;;;24.17;13.15;;;;;;;;;;5036181;28;20044;-58
2021/04/24 11:51:38;;;;;;;22.92;14.55;;;;;;;;;;5016743;28;20047;-57
2021/04/24 11:54:08;;;;;;;21.08;13.90;;;;;;;;;;5035087;28;20110;-57
2021/04/24 11:56:34;;;;;;;21.95;14.20;;;;;;;;;;5033804;28;20041;-57
2021/04/24 11:59:03;;;;;;;21.15;13.32;;;;;;;;;;5034195;28;20040;-57
2021/04/24 12:01:29;;;;;;;21.27;14.25;;;;;;;;;;5033717;28;20067;-54
2021/04/24 12:03:55;;;;;;;21.88;14.57;;;;;;;;;;5039074;28;20047;-57
2021/04/24 12:06:37;;;;;;;20.08;13.88;;;;;;;;;;5037721;28;20116;-57
2021/04/24 12:09:08;;;;;;;21.27;14.23;;;;;;;;;;5035695;28;20084;-55
2021/04/24 12:11:34;;;;;;;22.95;13.55;;;;;;;;;;5035143;28;20030;-57
2021/04/24 12:14:00;;;;;;;19.75;13.10;;;;;;;;;;5012274;28;20056;-56
2021/04/24 12:16:38;;;;;;;20.10;13.60;;;;;;;;;;5036912;28;20033;-57
2021/04/24 12:19:20;;;;;;;18.00;12.27;;;;;;;;;;5038733;28;20041;-58
2021/04/24 12:21:46;;;;;;;23.42;12.77;;;;;;;;;;5036124;28;20132;-57
2021/04/24 12:24:12;;;;;;;22.10;12.57;;;;;;;;;;5005638;28;20044;-57
2021/04/24 12:26:38;;;;;;;23.23;12.52;;;;;;;;;;5017389;28;20047;-54
2021/04/24 12:29:04;;;;;;;18.10;12.90;;;;;;;;;;5026235;28;20044;-55
2021/04/24 12:31:31;;;;;;;17.58;12.02;;;;;;;;;;5024876;28;20052;-56
2021/04/24 12:33:56;;;;;;;17.63;12.45;;;;;;;;;;5022805;28;20518;-56
2021/04/24 12:36:22;;;;;;;19.35;12.52;;;;;;;;;;5024026;28;20049;-57
2021/04/24 12:38:48;;;;;;;18.33;12.18;;;;;;;;;;5025463;28;20405;-56
2021/04/24 12:41:15;;;;;;;20.92;12.65;;;;;;;;;;5031181;28;20190;-56
2021/04/24 12:43:42;;;;;;;18.52;13.02;;;;;;;;;;5023927;28;21973;-57
2021/04/24 12:46:09;;;;;;;21.48;12.48;;;;;;;;;;5025204;28;20041;-57
2021/04/24 12:48:40;;;;;;;19.60;13.70;;;;;;;;;;5022165;28;20041;-57
2021/04/24 12:51:11;;;;;;;21.20;13.48;;;;;;;;;;5005051;28;20073;-57
2021/04/24 12:53:38;;;;;;;24.35;13.63;;;;;;;;;;5024489;28;20045;-57
2021/04/24 12:56:05;;;;;;;21.73;14.18;;;;;;;;;;5027108;28;20083;-55
2021/04/24 12:58:32;;;;;;;24.58;14.57;;;;;;;;;;5024118;28;20033;-56
2021/04/24 13:01:07;;;;;;;23.73;15.88;;;;;;;;;;5021808;28;20045;-57
2021/04/24 13:03:34;;;;;;;23.52;15.02;;;;;;;;;;5021292;28;20045;-55
2021/04/24 13:06:22;;;;;;;22.10;14.15;;;;;;;;;;5011635;28;20041;-55
2021/04/24 13:09:00;;;;;;;23.55;14.88;;;;;;;;;;5024170;28;20050;-58
2021/04/24 13:11:37;;;;;;;23.55;13.82;;;;;;;;;;5032880;28;20049;-57
2021/04/24 13:14:16;;;;;;;21.35;13.43;;;;;;;;;;5024485;28;20041;-56
2021/04/24 13:16:42;;;;;;;19.88;13.32;;;;;;;;;;5025645;28;20041;-57
2021/04/24 13:19:08;;;;;;;22.40;13.30;;;;;;;;;;5023754;28;20060;-58
2021/04/24 13:21:36;;;;;;;20.90;13.70;;;;;;;;;;5022524;28;20033;-55
2021/04/24 13:24:04;;;;;;;19.02;12.88;;;;;;;;;;5013406;28;20057;-54
2021/04/24 13:26:31;;;;;;;22.45;14.00;;;;;;;;;;5022256;28;20047;-57
2021/04/24 13:29:09;;;;;;;20.80;13.93;;;;;;;;;;5021671;28;20080;-56
2021/04/24 13:31:35;;;;;;;18.67;13.07;;;;;;;;;;5014700;28;20038;-57
2021/04/24 13:34:01;;;;;;;20.13;13.38;;;;;;;;;;5034185;28;20083;-56
2021/04/24 13:36:27;;;;;;;19.17;13.20;;;;;;;;;;5014577;28;20037;-56
2021/04/24 13:39:00;;;;;;;20.60;13.35;;;;;;;;;;5020496;28;20069;-58
2021/04/24 13:41:26;;;;;;;20.45;12.57;;;;;;;;;;5014534;28;20424;-58
2021/04/24 13:43:52;;;;;;;21.27;13.20;;;;;;;;;;5019327;28;20049;-57
2021/04/24 13:46:21;;;;;;;21.15;13.65;;;;;;;;;;5019857;28;20061;-56
2021/04/24 13:48:47;;;;;;;15.35;11.38;;;;;;;;;;5024293;28;20167;-56
2021/04/24 13:51:13;;;;;;;20.55;12.13;;;;;;;;;;5014986;28;20042;-59
2021/04/24 13:53:39;;;;;;;19.55;12.00;;;;;;;;;;5028173;28;20083;-56
2021/04/24 13:56:05;;;;;;;15.25;11.55;;;;;;;;;;5031656;28;22205;-58
2021/04/24 13:58:31;;;;;;;15.18;10.15;;;;;;;;;;5029502;28;20159;-58
2021/04/24 14:00:57;;;;;;;16.35;11.65;;;;;;;;;;5030776;28;20036;-57
2021/04/24 14:03:23;;;;;;;16.55;10.88;;;;;;;;;;5031569;28;20144;-59
2021/04/24 14:05:49;;;;;;;15.98;11.23;;;;;;;;;;5030576;28;20025;-55
2021/04/24 14:08:15;;;;;;;15.98;11.02;;;;;;;;;;5032301;28;20033;-57
2021/04/24 14:10:41;;;;;;;16.15;11.13;;;;;;;;;;5031154;28;20033;-55
2021/04/24 14:13:07;;;;;;;15.00;10.77;;;;;;;;;;5031629;28;20434;-57
2021/04/24 14:15:33;;;;;;;15.65;11.18;;;;;;;;;;5023837;28;20061;-56
2021/04/24 14:17:59;;;;;;;19.33;11.07;;;;;;;;;;5039210;28;20140;-57
2021/04/24 14:20:25;;;;;;;16.25;11.02;;;;;;;;;;5011333;28;20118;-56
2021/04/24 14:22:51;;;;;;;14.10;9.70;;;;;;;;;;5010237;28;20128;-56
2021/04/24 14:25:17;;;;;;;15.63;10.43;;;;;;;;;;5011886;28;20507;-56
2021/04/24 14:27:43;;;;;;;16.35;10.50;;;;;;;;;;5012375;28;20049;-54